Time;durP1;ratioP1;P1;durP2;ratioP2;P2;SDS_P1;SDS_P2;PMS_P1;PMS_P2;Temp;Humidity;BMP_temperature;BMP_pressure;BME280_temperature;BME280_humidity;BME280_pressure;Samples;Min_cycle;Max_cycle;Signal;HPM_P1;HPM_P2
2021/03/04 00:02:10;;;;;;;;;;;11.70;55.90;;;;;;5013193;28;19932;-77
2021/03/04 00:04:36;;;;;;;;;;;11.70;55.80;;;;;;5022674;28;19932;-77
2021/03/04 00:07:03;;;;;;;;;;;11.70;55.80;;;;;;5037996;28;19921;-77
2021/03/04 00:09:29;;;;;;;;;;;11.70;55.70;;;;;;5041022;28;19925;-77
2021/03/04 00:11:55;;;;;;;;;;;11.70;55.70;;;;;;5031874;28;19921;-77
2021/03/04 00:14:22;;;;;;;;;;;11.70;55.70;;;;;;5025886;28;19928;-77
2021/03/04 00:16:49;;;;;;;;;;;11.60;55.70;;;;;;5012998;28;20270;-77
2021/03/04 00:19:15;;;;;;;;;;;11.60;55.70;;;;;;5013919;28;20404;-77
2021/03/04 00:21:41;;;;;;;;;;;11.60;55.80;;;;;;5024584;28;19921;-77
2021/03/04 00:24:08;;;;;;;;;;;11.60;55.50;;;;;;5031253;28;19944;-78
2021/03/04 00:26:35;;;;;;;;;;;11.60;55.40;;;;;;5032702;28;19921;-77
2021/03/04 00:29:01;;;;;;;;;;;11.60;55.50;;;;;;5033224;28;19987;-77
2021/03/04 00:31:27;;;;;;;;;;;11.60;55.40;;;;;;5036205;28;19928;-76
2021/03/04 00:33:54;;;;;;;;;;;11.60;55.30;;;;;;5023209;28;20381;-77
2021/03/04 00:36:21;;;;;;;;;;;11.60;55.30;;;;;;5016393;28;19932;-78
2021/03/04 00:38:47;;;;;;;;;;;11.60;55.30;;;;;;5025422;28;20262;-77
2021/03/04 00:41:13;;;;;;;;;;;11.50;55.20;;;;;;5035992;28;19975;-77
2021/03/04 00:43:39;;;;;;;;;;;11.50;55.20;;;;;;5028113;28;19922;-76
2021/03/04 00:46:06;;;;;;;;;;;11.50;55.10;;;;;;5025210;28;19932;-77
2021/03/04 00:48:32;;;;;;;;;;;11.50;54.90;;;;;;5029608;28;19952;-77
2021/03/04 00:50:59;;;;;;;;;;;11.60;55.00;;;;;;5022777;28;19921;-77
2021/03/04 00:53:25;;;;;;;;;;;11.60;54.80;;;;;;5030912;28;19925;-78
2021/03/04 00:55:52;;;;;;;;;;;11.60;54.70;;;;;;5020688;28;19951;-77
2021/03/04 00:58:18;;;;;;;;;;;11.60;54.50;;;;;;5034138;28;19929;-77
2021/03/04 01:00:44;;;;;;;;;;;11.60;54.60;;;;;;5015749;28;19921;-77
2021/03/04 01:03:11;;;;;;;;;;;11.50;54.50;;;;;;5017552;28;19928;-77
2021/03/04 01:05:37;;;;;;;;;;;11.50;54.60;;;;;;5034996;28;19921;-77
2021/03/04 01:08:04;;;;;;;;;;;11.50;54.60;;;;;;5048716;28;19930;-77
2021/03/04 01:10:33;;;;;;;;;;;11.50;54.60;;;;;;5015612;28;19921;-77
2021/03/04 01:12:59;;;;;;;;;;;11.40;54.60;;;;;;5015844;28;19921;-77
2021/03/04 01:15:26;;;;;;;;;;;11.40;54.70;;;;;;5016690;28;20147;-78
2021/03/04 01:17:52;;;;;;;;;;;11.40;54.80;;;;;;5015576;28;19928;-77
2021/03/04 01:20:19;;;;;;;;;;;11.30;54.80;;;;;;5032953;28;19925;-77
2021/03/04 01:22:45;;;;;;;;;;;11.40;54.90;;;;;;5035331;28;19925;-78
2021/03/04 01:25:13;;;;;;;;;;;11.40;54.90;;;;;;5019140;28;20366;-77
2021/03/04 01:27:39;;;;;;;;;;;11.40;54.90;;;;;;5013848;28;19921;-77
2021/03/04 01:30:07;;;;;;;;;;;11.30;54.80;;;;;;5029838;28;19921;-77
2021/03/04 01:32:33;;;;;;;;;;;11.30;54.90;;;;;;5035105;28;19920;-77
2021/03/04 01:34:59;;;;;;;;;;;11.30;54.90;;;;;;5033333;28;19921;-77
2021/03/04 01:37:26;;;;;;;;;;;11.30;54.90;;;;;;5034946;28;19928;-77
2021/03/04 01:39:52;;;;;;;;;;;11.30;55.50;;;;;;5022644;28;20378;-78
2021/03/04 01:42:19;;;;;;;;;;;11.30;54.90;;;;;;5015225;28;19922;-77
2021/03/04 01:44:45;;;;;;;;;;;11.20;54.90;;;;;;5024219;28;19975;-78
2021/03/04 01:47:12;;;;;;;;;;;11.20;55.00;;;;;;5035009;28;19928;-77
2021/03/04 01:49:39;;;;;;;;;;;11.20;55.00;;;;;;5033069;28;19921;-77
2021/03/04 01:52:06;;;;;;;;;;;11.20;55.10;;;;;;5034046;28;19966;-77
2021/03/04 01:54:32;;;;;;;;;;;11.10;55.10;;;;;;5025527;28;19969;-77
2021/03/04 01:56:58;;;;;;;;;;;11.10;55.10;;;;;;5014861;28;19980;-77
2021/03/04 01:59:25;;;;;;;;;;;11.10;55.00;;;;;;5020662;28;19921;-77
2021/03/04 02:01:52;;;;;;;;;;;11.10;55.00;;;;;;5034754;28;19964;-77
2021/03/04 02:04:18;;;;;;;;;;;11.10;55.00;;;;;;5032805;28;20377;-77
2021/03/04 02:06:47;;;;;;;;;;;11.10;55.10;;;;;;5037558;28;19924;-77
2021/03/04 02:09:14;;;;;;;;;;;11.10;55.00;;;;;;5016669;28;19952;-76
2021/03/04 02:11:44;;;;;;;;;;;11.10;55.20;;;;;;5014784;28;20285;-76
2021/03/04 02:14:11;;;;;;;;;;;11.10;55.10;;;;;;5031658;28;20397;-76
2021/03/04 02:16:40;;;;;;;;;;;11.10;55.10;;;;;;5033685;28;20381;-77
2021/03/04 02:19:09;;;;;;;;;;;11.10;55.10;;;;;;5017713;28;19921;-76
2021/03/04 02:21:43;;;;;;;;;;;11.10;55.10;;;;;;5012731;28;20037;-77
2021/03/04 02:24:26;;;;;;;;;;;11.00;54.90;;;;;;5030400;28;19921;-77
2021/03/04 02:27:03;;;;;;;;;;;11.00;54.90;;;;;;5033436;28;20016;-76
2021/03/04 02:29:32;;;;;;;;;;;11.00;54.80;;;;;;5015554;28;19928;-76
2021/03/04 02:31:59;;;;;;;;;;;11.00;54.80;;;;;;5014372;28;19925;-76
2021/03/04 02:34:26;;;;;;;;;;;11.00;54.80;;;;;;5030022;28;19941;-77
2021/03/04 02:36:53;;;;;;;;;;;10.90;54.70;;;;;;5033307;28;19925;-77
2021/03/04 02:39:20;;;;;;;;;;;10.90;54.70;;;;;;5033857;28;19928;-76
2021/03/04 02:41:47;;;;;;;;;;;10.90;54.60;;;;;;5033684;28;20267;-77
2021/03/04 02:44:15;;;;;;;;;;;10.90;54.60;;;;;;5019858;28;19922;-77
2021/03/04 02:46:41;;;;;;;;;;;10.90;54.60;;;;;;5015392;28;20440;-76
2021/03/04 02:49:08;;;;;;;;;;;10.90;54.60;;;;;;5033636;28;20397;-76
2021/03/04 02:51:36;;;;;;;;;;;10.90;54.60;;;;;;5029083;28;20436;-76
2021/03/04 02:54:03;;;;;;;;;;;10.90;54.60;;;;;;5032922;28;20286;-77
2021/03/04 02:56:30;;;;;;;;;;;10.90;54.60;;;;;;5030750;28;19920;-77
2021/03/04 02:58:58;;;;;;;;;;;10.90;54.50;;;;;;5013947;28;20386;-77
2021/03/04 03:01:26;;;;;;;;;;;11.00;54.60;;;;;;5015127;28;19944;-77
2021/03/04 03:03:53;;;;;;;;;;;11.00;54.60;;;;;;5033355;28;20362;-77
2021/03/04 03:06:21;;;;;;;;;;;11.00;54.60;;;;;;5032886;28;19974;-76
2021/03/04 03:08:47;;;;;;;;;;;11.00;54.40;;;;;;5033242;28;19925;-77
2021/03/04 03:11:14;;;;;;;;;;;11.00;54.30;;;;;;5033435;28;19921;-77
2021/03/04 03:13:41;;;;;;;;;;;11.10;54.30;;;;;;5014548;28;19925;-76
2021/03/04 03:16:07;;;;;;;;;;;11.10;54.20;;;;;;5018462;28;19925;-77
2021/03/04 03:18:34;;;;;;;;;;;11.10;54.00;;;;;;5015622;28;19922;-76
2021/03/04 03:21:01;;;;;;;;;;;11.00;53.90;;;;;;5013634;28;19972;-76
2021/03/04 03:23:27;;;;;;;;;;;11.00;53.80;;;;;;5014457;28;20384;-77
2021/03/04 03:25:53;;;;;;;;;;;11.00;53.80;;;;;;5013583;28;19925;-77
2021/03/04 03:28:19;;;;;;;;;;;11.00;53.70;;;;;;5026087;28;19982;-76
2021/03/04 03:30:46;;;;;;;;;;;10.90;53.60;;;;;;5033216;28;19928;-76
2021/03/04 03:33:14;;;;;;;;;;;10.90;53.70;;;;;;5019738;28;19926;-76
2021/03/04 03:35:42;;;;;;;;;;;10.90;53.70;;;;;;5013338;28;19922;-76
2021/03/04 03:38:08;;;;;;;;;;;10.90;53.60;;;;;;5014368;28;19921;-76
2021/03/04 03:40:36;;;;;;;;;;;10.90;53.60;;;;;;5011647;28;20389;-77
2021/03/04 03:43:03;;;;;;;;;;;10.90;53.60;;;;;;5014244;28;19922;-77
2021/03/04 03:45:30;;;;;;;;;;;10.90;53.80;;;;;;5015172;28;19925;-77
2021/03/04 03:47:57;;;;;;;;;;;10.90;53.90;;;;;;5023415;28;19948;-76
2021/03/04 03:50:23;;;;;;;;;;;10.80;53.80;;;;;;5013260;28;20008;-77
2021/03/04 03:52:51;;;;;;;;;;;10.80;53.90;;;;;;5016745;28;20479;-76
2021/03/04 03:55:18;;;;;;;;;;;10.90;53.80;;;;;;5032784;28;19928;-76
2021/03/04 03:57:45;;;;;;;;;;;10.90;53.90;;;;;;5025943;28;19928;-77
2021/03/04 04:00:12;;;;;;;;;;;10.80;53.80;;;;;;5013172;28;19968;-75
2021/03/04 04:02:39;;;;;;;;;;;10.90;54.00;;;;;;5018367;28;19945;-76
2021/03/04 04:05:06;;;;;;;;;;;10.80;53.90;;;;;;5036926;28;19929;-76
2021/03/04 04:07:33;;;;;;;;;;;10.80;53.90;;;;;;5038737;28;19921;-75
2021/03/04 04:10:01;;;;;;;;;;;10.70;53.80;;;;;;5036633;28;19928;-75
2021/03/04 04:12:29;;;;;;;;;;;10.70;53.90;;;;;;5033871;28;19928;-75
2021/03/04 04:14:55;;;;;;;;;;;10.70;54.00;;;;;;5025279;28;19928;-76
2021/03/04 04:17:21;;;;;;;;;;;10.70;54.10;;;;;;5035049;28;19975;-76
2021/03/04 04:19:48;;;;;;;;;;;10.60;54.10;;;;;;5016765;28;19952;-76
2021/03/04 04:22:15;;;;;;;;;;;10.60;54.10;;;;;;5034957;28;19921;-76
2021/03/04 04:24:41;;;;;;;;;;;10.60;54.20;;;;;;5036254;28;19975;-75
2021/03/04 04:27:09;;;;;;;;;;;10.60;54.30;;;;;;5035993;28;19925;-76
2021/03/04 04:29:36;;;;;;;;;;;10.60;54.40;;;;;;5017925;28;19976;-76
2021/03/04 04:32:02;;;;;;;;;;;10.60;54.40;;;;;;5019521;28;20581;-75
2021/03/04 04:34:28;;;;;;;;;;;10.50;54.30;;;;;;5029382;28;19928;-76
2021/03/04 04:36:54;;;;;;;;;;;10.50;54.40;;;;;;5035777;28;19921;-76
2021/03/04 04:39:21;;;;;;;;;;;10.40;54.50;;;;;;5032446;28;19921;-75
2021/03/04 04:41:47;;;;;;;;;;;10.40;54.60;;;;;;5025530;28;19929;-75
2021/03/04 04:44:14;;;;;;;;;;;10.40;54.70;;;;;;5029961;28;19925;-76
2021/03/04 04:46:40;;;;;;;;;;;10.40;54.80;;;;;;5035222;28;20262;-76
2021/03/04 04:49:07;;;;;;;;;;;10.40;54.90;;;;;;5031898;28;19929;-76
2021/03/04 04:51:34;;;;;;;;;;;10.30;54.80;;;;;;5035209;28;20333;-76
2021/03/04 04:54:01;;;;;;;;;;;10.30;54.90;;;;;;5036302;28;19921;-76
2021/03/04 04:56:27;;;;;;;;;;;10.30;54.90;;;;;;5055294;28;20428;-76
2021/03/04 04:58:53;;;;;;;;;;;10.30;54.70;;;;;;5043098;28;19921;-76
2021/03/04 05:01:20;;;;;;;;;;;10.20;54.80;;;;;;5033164;28;20044;-76
2021/03/04 05:03:47;;;;;;;;;;;10.20;54.70;;;;;;5030739;28;19928;-76
2021/03/04 05:06:13;;;;;;;;;;;10.20;54.50;;;;;;5034433;28;19925;-76
2021/03/04 05:08:39;;;;;;;;;;;10.30;54.50;;;;;;5041470;28;19992;-76
2021/03/04 05:11:05;;;;;;;;;;;10.30;54.50;;;;;;5035033;28;19921;-76
2021/03/04 05:13:32;;;;;;;;;;;10.30;54.70;;;;;;5029110;28;19925;-75
2021/03/04 05:15:58;;;;;;;;;;;10.20;54.70;;;;;;5029016;28;19921;-76
2021/03/04 05:18:25;;;;;;;;;;;10.20;54.60;;;;;;5033983;28;19925;-76
2021/03/04 05:20:52;;;;;;;;;;;10.20;54.60;;;;;;5034189;28;20420;-76
2021/03/04 05:23:18;;;;;;;;;;;10.20;54.70;;;;;;5034089;28;19921;-76
2021/03/04 05:25:44;;;;;;;;;;;10.20;54.70;;;;;;5035412;28;19944;-76
2021/03/04 05:28:10;;;;;;;;;;;10.30;54.60;;;;;;5032180;28;19928;-76
2021/03/04 05:30:37;;;;;;;;;;;10.30;54.40;;;;;;5018651;28;20024;-76
2021/03/04 05:33:03;;;;;;;;;;;10.30;54.40;;;;;;5026502;28;19928;-76
2021/03/04 05:35:30;;;;;;;;;;;10.30;54.40;;;;;;5034006;28;20270;-76
2021/03/04 05:37:57;;;;;;;;;;;10.30;54.30;;;;;;5024746;28;19925;-76
2021/03/04 05:40:23;;;;;;;;;;;10.30;54.30;;;;;;5028578;28;20439;-76
2021/03/04 05:42:50;;;;;;;;;;;10.30;54.10;;;;;;5034435;28;19924;-76
2021/03/04 05:45:18;;;;;;;;;;;10.30;53.90;;;;;;5033922;28;19925;-76
2021/03/04 05:47:45;;;;;;;;;;;10.30;53.70;;;;;;5034008;28;19968;-76
2021/03/04 05:50:13;;;;;;;;;;;10.30;53.40;;;;;;5046906;28;20008;-77
2021/03/04 05:52:43;;;;;;;;;;;10.30;53.30;;;;;;5044663;28;19928;-76
2021/03/04 05:55:11;;;;;;;;;;;10.40;53.10;;;;;;5028105;28;19932;-76
2021/03/04 05:57:37;;;;;;;;;;;10.40;53.10;;;;;;5032905;28;19928;-77
2021/03/04 06:00:04;;;;;;;;;;;10.40;53.00;;;;;;5033902;28;20374;-77
2021/03/04 06:02:31;;;;;;;;;;;10.40;53.20;;;;;;5021956;28;20266;-77
2021/03/04 06:04:58;;;;;;;;;;;10.30;53.30;;;;;;5033671;28;19921;-76
2021/03/04 06:07:24;;;;;;;;;;;10.30;53.40;;;;;;5039226;28;19927;-76
2021/03/04 06:09:53;;;;;;;;;;;10.30;53.50;;;;;;5041611;28;19929;-76
2021/03/04 06:12:19;;;;;;;;;;;10.30;53.40;;;;;;5024274;28;20101;-76
2021/03/04 06:14:46;;;;;;;;;;;10.30;53.30;;;;;;5024194;28;19921;-76
2021/03/04 06:17:13;;;;;;;;;;;10.30;53.30;;;;;;5025002;28;19926;-76
2021/03/04 06:19:39;;;;;;;;;;;10.30;53.30;;;;;;5015092;28;20378;-75
2021/03/04 06:22:05;;;;;;;;;;;10.30;53.40;;;;;;5030121;28;19921;-76
2021/03/04 06:24:32;;;;;;;;;;;10.30;53.50;;;;;;5033563;28;19964;-76
2021/03/04 06:26:59;;;;;;;;;;;10.20;53.40;;;;;;5029786;28;19929;-76
2021/03/04 06:29:26;;;;;;;;;;;10.20;53.30;;;;;;5032905;28;19921;-76
2021/03/04 06:31:59;;;;;;;;;;;10.20;53.40;;;;;;5030036;28;19968;-76
2021/03/04 06:34:25;;;;;;;;;;;10.30;53.50;;;;;;5014260;28;19929;-76
2021/03/04 06:36:55;;;;;;;;;;;10.30;53.30;;;;;;5024134;28;19921;-75
2021/03/04 06:39:22;;;;;;;;;;;10.40;53.20;;;;;;5017796;28;19921;-75
2021/03/04 06:41:56;;;;;;;;;;;10.40;53.20;;;;;;5030529;28;19975;-75
2021/03/04 06:44:24;;;;;;;;;;;10.40;53.00;;;;;;5030928;28;19921;-75
2021/03/04 06:46:50;;;;;;;;;;;10.50;53.20;;;;;;5031387;28;19932;-75
2021/03/04 06:49:16;;;;;;;;;;;10.40;53.20;;;;;;5032297;28;19921;-76
2021/03/04 06:51:43;;;;;;;;;;;10.40;53.40;;;;;;5032868;28;19928;-75
2021/03/04 06:54:10;;;;;;;;;;;10.40;53.50;;;;;;5018369;28;19932;-75
2021/03/04 06:56:36;;;;;;;;;;;10.40;53.70;;;;;;5026211;28;19944;-75
2021/03/04 06:59:03;;;;;;;;;;;10.40;53.80;;;;;;5031453;28;19921;-76
2021/03/04 07:01:30;;;;;;;;;;;10.40;53.90;;;;;;5031940;28;19979;-75
2021/03/04 07:03:56;;;;;;;;;;;10.50;53.90;;;;;;5033294;28;20274;-75
2021/03/04 07:06:23;;;;;;;;;;;10.50;53.80;;;;;;5031619;28;19921;-75
2021/03/04 07:08:50;;;;;;;;;;;10.60;54.40;;;;;;5045219;28;19925;-75
2021/03/04 07:11:17;;;;;;;;;;;10.70;53.60;;;;;;5031811;28;19920;-76
2021/03/04 07:13:44;;;;;;;;;;;10.70;52.80;;;;;;5018262;28;19921;-75
2021/03/04 07:16:15;;;;;;;;;;;10.70;52.60;;;;;;5021395;28;20048;-75
2021/03/04 07:18:43;;;;;;;;;;;10.80;52.50;;;;;;5013571;28;19921;-75
2021/03/04 07:21:10;;;;;;;;;;;11.00;52.00;;;;;;5032160;28;19925;-76
2021/03/04 07:23:37;;;;;;;;;;;11.10;51.80;;;;;;5032917;28;19925;-75
2021/03/04 07:26:04;;;;;;;;;;;11.20;51.50;;;;;;5028702;28;19925;-76
2021/03/04 07:28:30;;;;;;;;;;;11.30;51.40;;;;;;5013126;28;19929;-76
2021/03/04 07:30:57;;;;;;;;;;;11.40;51.00;;;;;;5024897;28;19929;-76
2021/03/04 07:33:23;;;;;;;;;;;11.40;50.60;;;;;;5032550;28;19921;-76
2021/03/04 07:35:51;;;;;;;;;;;11.50;50.60;;;;;;5017516;28;19922;-76
2021/03/04 07:38:22;;;;;;;;;;;11.70;50.50;;;;;;5031828;28;20333;-75
2021/03/04 07:40:58;;;;;;;;;;;11.80;49.90;;;;;;5028876;28;19925;-76
2021/03/04 07:43:25;;;;;;;;;;;11.90;49.40;;;;;;5032228;28;19929;-75
2021/03/04 07:45:51;;;;;;;;;;;12.10;49.10;;;;;;5017072;28;19928;-74
2021/03/04 07:48:18;;;;;;;;;;;12.30;48.70;;;;;;5021296;28;19921;-76
2021/03/04 07:50:55;;;;;;;;;;;12.50;48.70;;;;;;5020184;28;19922;-74
2021/03/04 07:53:22;;;;;;;;;;;12.80;48.20;;;;;;5032255;28;19921;-75
2021/03/04 07:55:50;;;;;;;;;;;13.10;47.40;;;;;;5031611;28;19929;-75
2021/03/04 07:58:16;;;;;;;;;;;13.30;46.70;;;;;;5032096;28;19975;-75
2021/03/04 08:00:43;;;;;;;;;;;13.40;46.60;;;;;;5027351;28;19921;-75
2021/03/04 08:03:09;;;;;;;;;;;13.40;46.40;;;;;;5017671;28;20435;-75
2021/03/04 08:05:36;;;;;;;;;;;13.60;46.30;;;;;;5024947;28;20009;-75
2021/03/04 08:08:13;;;;;;;;;;;13.70;46.10;;;;;;5041175;28;19925;-75
2021/03/04 08:10:43;;;;;;;;;;;13.80;45.80;;;;;;5025717;28;19931;-76
2021/03/04 08:13:09;;;;;;;;;;;14.00;45.40;;;;;;5030593;28;20369;-76
2021/03/04 08:15:40;;;;;;;;;;;14.10;44.90;;;;;;5031870;28;19978;-76
2021/03/04 08:18:16;;;;;;;;;;;14.20;43.60;;;;;;5030872;28;19925;-75
2021/03/04 08:20:42;;;;;;;;;;;14.30;42.70;;;;;;5031562;28;19921;-76
2021/03/04 08:23:09;;;;;;;;;;;14.30;41.60;;;;;;5013306;28;20310;-75
2021/03/04 08:25:37;;;;;;;;;;;14.30;41.60;;;;;;5014284;28;19921;-75
2021/03/04 08:28:04;;;;;;;;;;;14.40;41.90;;;;;;5019672;28;20343;-74
2021/03/04 08:30:31;;;;;;;;;;;14.40;41.10;;;;;;5023209;28;19928;-72
2021/03/04 08:32:59;;;;;;;;;;;14.40;41.10;;;;;;5025597;28;19921;-73
2021/03/04 08:35:26;;;;;;;;;;;14.50;40.90;;;;;;5030757;28;20378;-74
2021/03/04 08:37:55;;;;;;;;;;;14.50;40.60;;;;;;5012589;28;19925;-73
2021/03/04 08:40:22;;;;;;;;;;;14.60;41.00;;;;;;5012809;28;19922;-73
2021/03/04 08:42:49;;;;;;;;;;;14.70;40.80;;;;;;5012778;28;19925;-73
2021/03/04 08:45:15;;;;;;;;;;;14.90;40.80;;;;;;5012594;28;19922;-73
2021/03/04 08:47:41;;;;;;;;;;;15.10;40.30;;;;;;5020475;28;20354;-73
2021/03/04 08:50:08;;;;;;;;;;;15.20;39.70;;;;;;5033539;28;19975;-73
2021/03/04 08:52:35;;;;;;;;;;;15.20;39.80;;;;;;5034969;28;20312;-73
2021/03/04 08:55:03;;;;;;;;;;;15.20;39.60;;;;;;5021113;28;19976;-73
2021/03/04 08:57:30;;;;;;;;;;;15.10;38.90;;;;;;5022040;28;20019;-73
2021/03/04 09:00:10;;;;;;;;;;;15.00;39.00;;;;;;5033989;28;20378;-73
2021/03/04 09:02:37;;;;;;;;;;;15.00;39.30;;;;;;5014187;28;19928;-73
2021/03/04 09:05:03;;;;;;;;;;;15.00;39.30;;;;;;5019735;28;20362;-73
2021/03/04 09:07:31;;;;;;;;;;;15.00;39.40;;;;;;5041254;28;19931;-73
2021/03/04 09:10:01;;;;;;;;;;;15.10;39.10;;;;;;5033346;28;19921;-74
2021/03/04 09:12:28;;;;;;;;;;;15.10;38.90;;;;;;5022890;28;19925;-73
2021/03/04 09:14:55;;;;;;;;;;;15.00;38.60;;;;;;5016513;28;19937;-73
2021/03/04 09:17:22;;;;;;;;;;;14.90;38.70;;;;;;5016465;28;20048;-73
2021/03/04 09:19:52;;;;;;;;;;;14.80;39.00;;;;;;5015535;28;20028;-73
2021/03/04 09:22:18;;;;;;;;;;;14.80;39.40;;;;;;5031707;28;19944;-73
2021/03/04 09:24:46;;;;;;;;;;;14.80;39.70;;;;;;5031898;28;19979;-73
2021/03/04 09:27:13;;;;;;;;;;;14.90;39.60;;;;;;5032632;28;19928;-73
2021/03/04 09:29:40;;;;;;;;;;;15.00;39.50;;;;;;5027484;28;20016;-73
2021/03/04 09:32:07;;;;;;;;;;;15.20;39.60;;;;;;5035305;28;20286;-73
2021/03/04 09:34:37;;;;;;;;;;;15.30;39.10;;;;;;5016098;28;19929;-73
2021/03/04 09:37:08;;;;;;;;;;;15.40;39.10;;;;;;5015364;28;19979;-73
2021/03/04 09:39:38;;;;;;;;;;;15.50;39.30;;;;;;5016065;28;19921;-73
2021/03/04 09:42:04;;;;;;;;;;;15.40;39.40;;;;;;5016827;28;19945;-73
2021/03/04 09:44:43;;;;;;;;;;;15.30;39.60;;;;;;5030748;28;19975;-73
2021/03/04 09:47:15;;;;;;;;;;;15.30;39.60;;;;;;5021176;28;19921;-73
2021/03/04 09:49:45;;;;;;;;;;;15.20;39.70;;;;;;5019345;28;19921;-74
2021/03/04 09:52:23;;;;;;;;;;;15.20;39.80;;;;;;5014891;28;19928;-73
2021/03/04 09:54:50;;;;;;;;;;;15.30;40.00;;;;;;5025460;28;19925;-74
2021/03/04 09:57:20;;;;;;;;;;;15.30;40.00;;;;;;5034340;28;19928;-73
2021/03/04 09:59:53;;;;;;;;;;;15.30;39.90;;;;;;5030460;28;20043;-74
2021/03/04 10:02:25;;;;;;;;;;;15.40;39.80;;;;;;5032968;28;20019;-74
2021/03/04 10:04:56;;;;;;;;;;;15.40;39.90;;;;;;5034461;28;20441;-74
2021/03/04 10:07:23;;;;;;;;;;;15.50;39.80;;;;;;5035659;28;19974;-74
2021/03/04 10:09:49;;;;;;;;;;;15.60;39.90;;;;;;5040046;28;19943;-73
2021/03/04 10:12:15;;;;;;;;;;;15.70;39.80;;;;;;5022096;28;19921;-74
2021/03/04 10:14:43;;;;;;;;;;;15.80;39.80;;;;;;5014613;28;19999;-73
2021/03/04 10:17:09;;;;;;;;;;;15.90;39.80;;;;;;5029330;28;19924;-73
2021/03/04 10:19:35;;;;;;;;;;;16.10;40.10;;;;;;5034444;28;20007;-73
2021/03/04 10:22:02;;;;;;;;;;;16.20;40.30;;;;;;5020657;28;19922;-73
2021/03/04 10:24:29;;;;;;;;;;;16.40;40.30;;;;;;5014456;28;19921;-76
2021/03/04 10:26:58;;;;;;;;;;;16.50;40.00;;;;;;5028052;28;20374;-74
2021/03/04 10:29:24;;;;;;;;;;;16.70;39.80;;;;;;5028601;28;20408;-73
2021/03/04 10:31:50;;;;;;;;;;;16.70;39.80;;;;;;5025800;28;19925;-74
2021/03/04 10:34:17;;;;;;;;;;;16.80;40.10;;;;;;5033773;28;19920;-74
2021/03/04 10:36:43;;;;;;;;;;;17.00;40.30;;;;;;5032839;28;19928;-74
2021/03/04 10:39:10;;;;;;;;;;;17.10;40.70;;;;;;5033765;28;19921;-74
2021/03/04 10:41:36;;;;;;;;;;;17.30;39.80;;;;;;5025442;28;19928;-73
2021/03/04 10:44:03;;;;;;;;;;;17.40;39.70;;;;;;5033829;28;19920;-73
2021/03/04 10:46:29;;;;;;;;;;;17.50;39.40;;;;;;5032782;28;19927;-74
2021/03/04 10:48:55;;;;;;;;;;;17.60;39.70;;;;;;5031569;28;20282;-73
2021/03/04 10:51:22;;;;;;;;;;;17.80;39.60;;;;;;5032505;28;19921;-76
2021/03/04 10:53:48;;;;;;;;;;;18.10;39.40;;;;;;5021155;28;19923;-73
2021/03/04 10:56:15;;;;;;;;;;;18.40;39.20;;;;;;5033705;28;20313;-73
2021/03/04 10:58:41;;;;;;;;;;;18.80;38.80;;;;;;5027920;28;19921;-74
2021/03/04 11:01:07;;;;;;;;;;;19.20;38.10;;;;;;5033455;28;19991;-75
2021/03/04 11:03:34;;;;;;;;;;;19.40;38.10;;;;;;5015245;28;19928;-75
2021/03/04 11:06:00;;;;;;;;;;;19.80;37.30;;;;;;5013587;28;20008;-75
2021/03/04 11:08:26;;;;;;;;;;;20.20;35.50;;;;;;5027683;28;19921;-75
2021/03/04 11:10:53;;;;;;;;;;;20.60;35.20;;;;;;5020569;28;19922;-75
2021/03/04 11:13:20;;;;;;;;;;;20.90;34.80;;;;;;5023968;28;19921;-75
2021/03/04 11:15:46;;;;;;;;;;;21.40;34.40;;;;;;5021442;28;19928;-75
2021/03/04 11:18:12;;;;;;;;;;;21.80;33.30;;;;;;5033455;28;19944;-75
2021/03/04 11:20:39;;;;;;;;;;;22.20;32.60;;;;;;5031530;28;19921;-74
2021/03/04 11:23:05;;;;;;;;;;;22.60;31.80;;;;;;5033081;28;19924;-75
2021/03/04 11:25:31;;;;;;;;;;;23.10;31.30;;;;;;5027519;28;19921;-75
2021/03/04 11:27:58;;;;;;;;;;;23.50;30.90;;;;;;5013438;28;19922;-75
2021/03/04 11:30:25;;;;;;;;;;;24.10;30.10;;;;;;5017914;28;19928;-75
2021/03/04 11:32:51;;;;;;;;;;;24.60;29.50;;;;;;5023810;28;20381;-76
2021/03/04 11:35:17;;;;;;;;;;;24.80;29.00;;;;;;5025037;28;19921;-76
2021/03/04 11:37:44;;;;;;;;;;;24.40;28.90;;;;;;5017131;28;19961;-75
2021/03/04 11:40:11;;;;;;;;;;;23.70;29.10;;;;;;5018052;28;19921;-75
2021/03/04 11:42:37;;;;;;;;;;;22.80;30.00;;;;;;5024752;28;19967;-76
2021/03/04 11:45:04;;;;;;;;;;;22.20;30.90;;;;;;5018213;28;19921;-74
2021/03/04 11:47:31;;;;;;;;;;;22.00;31.80;;;;;;5013521;28;20378;-76
2021/03/04 11:49:58;;;;;;;;;;;21.70;32.20;;;;;;5028324;28;20289;-76
2021/03/04 11:52:24;;;;;;;;;;;21.20;32.20;;;;;;5032695;28;19921;-76
2021/03/04 11:54:50;;;;;;;;;;;20.80;32.90;;;;;;5032737;28;19924;-76
2021/03/04 11:57:17;;;;;;;;;;;20.50;33.20;;;;;;5030501;28;20019;-76
2021/03/04 11:59:43;;;;;;;;;;;20.40;33.60;;;;;;5019670;28;19921;-76
2021/03/04 12:02:09;;;;;;;;;;;20.40;33.90;;;;;;5032706;28;19928;-76
2021/03/04 12:04:36;;;;;;;;;;;20.40;33.80;;;;;;5017897;28;20293;-76
2021/03/04 12:07:03;;;;;;;;;;;20.30;33.70;;;;;;5028352;28;19921;-74
2021/03/04 12:09:29;;;;;;;;;;;20.10;34.10;;;;;;5030865;28;19921;-75
2021/03/04 12:11:55;;;;;;;;;;;20.10;34.70;;;;;;5030995;28;20329;-75
2021/03/04 12:14:21;;;;;;;;;;;20.10;35.10;;;;;;5022709;28;19922;-75
2021/03/04 12:16:48;;;;;;;;;;;20.00;34.90;;;;;;5026535;28;19928;-75
2021/03/04 12:19:15;;;;;;;;;;;20.00;34.90;;;;;;5025375;28;19971;-76
2021/03/04 12:21:42;;;;;;;;;;;19.90;34.90;;;;;;5024966;28;19943;-75
2021/03/04 12:24:08;;;;;;;;;;;19.80;34.30;;;;;;5020026;28;19926;-75
2021/03/04 12:26:35;;;;;;;;;;;19.80;34.50;;;;;;5025777;28;20012;-75
2021/03/04 12:29:01;;;;;;;;;;;19.80;34.80;;;;;;5025942;28;19964;-75
2021/03/04 12:31:27;;;;;;;;;;;19.80;34.50;;;;;;5034655;28;19928;-75
2021/03/04 12:33:54;;;;;;;;;;;19.70;34.60;;;;;;5028942;28;19924;-75
2021/03/04 12:36:20;;;;;;;;;;;19.70;34.40;;;;;;5036096;28;19921;-76
2021/03/04 12:38:47;;;;;;;;;;;19.80;34.30;;;;;;5036103;28;19921;-75
2021/03/04 12:41:13;;;;;;;;;;;19.80;34.10;;;;;;5035942;28;19921;-75
2021/03/04 12:43:40;;;;;;;;;;;19.80;34.40;;;;;;5035285;28;19921;-75
2021/03/04 12:46:06;;;;;;;;;;;19.70;34.40;;;;;;5024345;28;19928;-75
2021/03/04 12:48:32;;;;;;;;;;;19.70;34.10;;;;;;5035953;28;19925;-75
2021/03/04 12:50:59;;;;;;;;;;;19.70;34.10;;;;;;5035421;28;19925;-75
2021/03/04 12:53:25;;;;;;;;;;;19.60;33.80;;;;;;5034395;28;19952;-75
2021/03/04 12:55:52;;;;;;;;;;;19.50;33.50;;;;;;5027709;28;19964;-76
2021/03/04 12:58:18;;;;;;;;;;;19.40;33.50;;;;;;5015780;28;19928;-75
2021/03/04 13:00:45;;;;;;;;;;;19.30;33.30;;;;;;5015324;28;20298;-75
2021/03/04 13:03:12;;;;;;;;;;;19.30;33.30;;;;;;5024081;28;19921;-74
2021/03/04 13:05:38;;;;;;;;;;;19.30;33.40;;;;;;5034964;28;20285;-75
2021/03/04 13:08:04;;;;;;;;;;;19.30;33.50;;;;;;5035001;28;19921;-74
2021/03/04 13:10:31;;;;;;;;;;;19.30;33.80;;;;;;5023325;28;19921;-75
2021/03/04 13:12:59;;;;;;;;;;;19.30;33.60;;;;;;5023851;28;19957;-75
2021/03/04 13:15:25;;;;;;;;;;;19.30;33.40;;;;;;5035539;28;19921;-75
2021/03/04 13:17:51;;;;;;;;;;;19.20;33.30;;;;;;5035426;28;19975;-75
2021/03/04 13:20:18;;;;;;;;;;;19.00;33.90;;;;;;5035446;28;20432;-75
2021/03/04 13:22:44;;;;;;;;;;;18.80;34.50;;;;;;5035553;28;19921;-75
2021/03/04 13:25:10;;;;;;;;;;;18.90;34.70;;;;;;5034520;28;19932;-74
2021/03/04 13:27:36;;;;;;;;;;;18.90;34.50;;;;;;5033955;28;19925;-74
2021/03/04 13:30:04;;;;;;;;;;;18.90;34.10;;;;;;5034955;28;20036;-74
2021/03/04 13:32:31;;;;;;;;;;;18.90;34.00;;;;;;5034863;28;19921;-74
2021/03/04 13:34:57;;;;;;;;;;;18.80;34.10;;;;;;5034525;28;19921;-75
2021/03/04 13:37:23;;;;;;;;;;;18.80;34.20;;;;;;5034273;28;20455;-75
2021/03/04 13:39:50;;;;;;;;;;;18.80;34.50;;;;;;5034921;28;19928;-74
2021/03/04 13:42:16;;;;;;;;;;;18.70;34.90;;;;;;5034709;28;20387;-75
2021/03/04 13:44:42;;;;;;;;;;;18.70;34.90;;;;;;5034455;28;19932;-75
2021/03/04 13:47:09;;;;;;;;;;;18.60;35.00;;;;;;5034872;28;19920;-74
2021/03/04 13:49:36;;;;;;;;;;;18.60;35.50;;;;;;5034433;28;19928;-75
2021/03/04 13:52:02;;;;;;;;;;;18.50;34.90;;;;;;5022463;28;19920;-74
2021/03/04 13:54:29;;;;;;;;;;;18.40;35.00;;;;;;5034172;28;20348;-74
2021/03/04 13:56:56;;;;;;;;;;;18.40;34.60;;;;;;5032837;28;20011;-74
2021/03/04 13:59:22;;;;;;;;;;;18.40;34.60;;;;;;5016101;28;19922;-75
2021/03/04 14:01:49;;;;;;;;;;;18.40;34.50;;;;;;5025783;28;19975;-76
2021/03/04 14:04:16;;;;;;;;;;;18.40;34.10;;;;;;5027683;28;19925;-76
2021/03/04 14:06:42;;;;;;;;;;;18.30;34.30;;;;;;5029404;28;19948;-75
2021/03/04 14:09:09;;;;;;;;;;;18.20;34.90;;;;;;5034752;28;20471;-75
2021/03/04 14:11:35;;;;;;;;;;;18.20;35.60;;;;;;5033905;28;19921;-74
2021/03/04 14:14:01;;;;;;;;;;;18.10;35.70;;;;;;5034293;28;19921;-76
2021/03/04 14:16:27;;;;;;;;;;;18.00;35.90;;;;;;5034463;28;19921;-75